createdAt,value
2018-06-22T00:00:38.706Z,69.07
2018-06-22T00:01:46.743Z,69.35
2018-06-22T00:02:54.831Z,69.83
2018-06-22T00:04:02.902Z,69.35
2018-06-22T00:05:10.963Z,68.69
2018-06-22T00:06:19.008Z,69.54
2018-06-22T00:07:27.085Z,69.07
2018-06-22T00:08:35.172Z,69.07
2018-06-22T00:09:43.213Z,69.83
2018-06-22T00:10:51.277Z,69.45
2018-06-22T00:11:59.345Z,69.45
2018-06-22T00:13:07.401Z,69.17
2018-06-22T00:14:15.469Z,69.54
2018-06-22T00:15:23.537Z,70.21
2018-06-22T00:16:31.618Z,70.37
2018-06-22T00:17:39.674Z,71.26
2018-06-22T00:18:47.746Z,71.64
2018-06-22T00:19:55.787Z,71.70
2018-06-22T00:21:03.885Z,70.56
2018-06-22T00:22:11.918Z,69.23
2018-06-22T00:23:20.407Z,70.08
2018-06-22T00:24:28.470Z,68.56
2018-06-22T00:25:36.542Z,68.08
2018-06-22T00:26:44.804Z,68.69
2018-06-22T00:27:54.874Z,68.88
2018-06-22T00:29:02.933Z,67.80
2018-06-22T00:30:11.008Z,67.93
2018-06-22T00:31:19.076Z,68.88
2018-06-22T00:32:27.116Z,69.17
2018-06-22T00:33:35.199Z,69.04
2018-06-22T00:34:43.293Z,69.99
2018-06-22T00:35:51.519Z,70.18
2018-06-22T00:36:59.571Z,69.42
2018-06-22T00:38:07.657Z,70.84
2018-06-22T00:39:15.723Z,71.61
2018-06-22T00:40:23.773Z,71.89
2018-06-22T00:41:31.855Z,71.61
2018-06-22T00:42:39.908Z,72.46
2018-06-22T00:43:47.980Z,72.81
2018-06-22T00:44:56.023Z,72.24
2018-06-22T00:46:04.111Z,73.47
2018-06-22T00:47:12.159Z,74.62
2018-06-22T00:48:20.240Z,73.85
2018-06-22T00:49:28.274Z,74.33
2018-06-22T00:50:36.318Z,74.62
2018-06-22T00:51:44.402Z,74.71
2018-06-22T00:52:52.469Z,75.19
2018-06-22T00:54:00.511Z,75.85
2018-06-22T00:55:08.591Z,75.81
2018-06-22T00:56:16.627Z,75.09
2018-06-22T00:57:24.708Z,75.72
2018-06-22T00:58:32.784Z,75.53
2018-06-22T00:59:40.827Z,75.72
2018-06-22T01:00:48.913Z,75.34
2018-06-22T01:01:56.962Z,76.67
2018-06-22T01:03:05.044Z,76.10
2018-06-22T01:04:13.093Z,75.81
2018-06-22T01:05:21.158Z,75.91
2018-06-22T01:06:29.224Z,76.57
2018-06-22T01:07:37.284Z,76.67
2018-06-22T01:08:45.358Z,76.96
2018-06-22T01:09:53.412Z,77.34
2018-06-22T01:11:01.514Z,77.72
2018-06-22T01:12:09.545Z,78.10
2018-06-22T01:13:17.607Z,78.10
2018-06-22T01:14:25.658Z,78.34
2018-06-22T01:15:33.739Z,78.82
2018-06-22T01:16:41.784Z,78.44
2018-06-22T01:17:49.858Z,79.30
2018-06-22T01:18:57.909Z,79.96
2018-06-22T01:20:06.063Z,79.49
2018-06-22T01:21:14.049Z,80.44
2018-06-22T01:22:22.175Z,80.63
2018-06-22T01:23:30.177Z,80.53
2018-06-22T01:24:38.237Z,80.91
2018-06-22T01:25:46.281Z,80.53
2018-06-22T01:26:54.378Z,80.53
2018-06-22T01:28:02.418Z,80.44
2018-06-22T01:29:10.498Z,80.63
2018-06-22T01:30:18.551Z,81.20
2018-06-22T01:31:26.647Z,80.63
2018-06-22T01:32:34.697Z,81.54
2018-06-22T01:33:42.763Z,81.73
2018-06-22T01:34:50.808Z,82.01
2018-06-22T01:35:58.864Z,82.20
2018-06-22T01:37:06.952Z,82.62
2018-06-22T01:38:14.999Z,81.63
2018-06-22T01:39:23.105Z,81.92
2018-06-22T01:40:31.119Z,81.73
2018-06-22T01:41:39.196Z,81.25
2018-06-22T01:42:47.261Z,80.96
2018-06-22T01:43:55.344Z,81.73
2018-06-22T01:45:03.368Z,81.16
2018-06-22T01:46:11.444Z,81.35
2018-06-22T01:47:19.508Z,81.54
2018-06-22T01:48:27.570Z,81.54
2018-06-22T01:49:35.635Z,81.54
2018-06-22T01:50:43.703Z,82.01
2018-06-22T01:51:51.762Z,82.29
2018-06-22T01:52:59.816Z,82.20
2018-06-22T01:54:07.887Z,82.35
2018-06-22T01:55:15.930Z,83.39
2018-06-22T01:56:24.009Z,83.49
2018-06-22T01:57:32.067Z,83.39
2018-06-22T01:58:40.137Z,82.64
2018-06-22T01:59:48.190Z,82.73
2018-06-22T02:00:56.236Z,82.64
2018-06-22T02:02:04.319Z,82.16
2018-06-22T02:03:12.373Z,82.64
2018-06-22T02:04:20.438Z,83.49
2018-06-22T02:05:28.498Z,83.59
2018-06-22T02:06:36.534Z,83.68
2018-06-22T02:07:44.632Z,84.25
2018-06-22T02:08:52.696Z,83.97
2018-06-22T02:10:00.768Z,83.49
2018-06-22T02:11:08.818Z,84.06
2018-06-22T02:12:16.856Z,83.20
2018-06-22T02:13:24.953Z,82.49
2018-06-22T02:14:32.997Z,83.39
2018-06-22T02:15:41.075Z,82.96
2018-06-22T02:16:49.125Z,83.20
2018-06-22T02:17:57.211Z,82.64
2018-06-22T02:19:05.257Z,83.78
2018-06-22T02:20:13.322Z,83.49
2018-06-22T02:21:21.387Z,83.49
2018-06-22T02:22:29.444Z,83.87
2018-06-22T02:23:37.497Z,84.16
2018-06-22T02:24:45.576Z,84.25
2018-06-22T02:25:53.626Z,83.68
2018-06-22T02:27:01.689Z,83.78
2018-06-22T02:28:09.743Z,84.63
2018-06-22T02:29:17.811Z,84.72
2018-06-22T02:30:25.874Z,84.91
2018-06-22T02:31:33.939Z,85.49
2018-06-22T02:32:41.999Z,85.49
2018-06-22T02:33:50.069Z,85.30
2018-06-22T02:34:58.134Z,85.44
2018-06-22T02:36:06.179Z,85.86
2018-06-22T02:37:14.250Z,85.91
2018-06-22T02:38:22.323Z,86.01
2018-06-22T02:39:30.363Z,86.01
2018-06-22T02:40:38.421Z,85.91
2018-06-22T02:41:46.461Z,86.58
2018-06-22T02:42:54.578Z,86.01
2018-06-22T02:44:02.618Z,86.01
2018-06-22T02:45:10.678Z,86.30
2018-06-22T02:46:18.746Z,86.87
2018-06-22T02:47:26.790Z,86.68
2018-06-22T02:48:34.875Z,85.91
2018-06-22T02:49:42.927Z,86.01
2018-06-22T02:50:50.983Z,85.72
2018-06-22T02:51:59.071Z,85.53
2018-06-22T02:53:07.115Z,86.01
2018-06-22T02:54:15.179Z,86.11
2018-06-22T02:55:23.238Z,86.20
2018-06-22T02:56:31.294Z,86.30
2018-06-22T02:57:39.365Z,86.58
2018-06-22T02:58:47.423Z,86.96
2018-06-22T02:59:55.576Z,87.24
2018-06-22T03:01:03.563Z,87.53
2018-06-22T03:02:11.616Z,87.68
2018-06-22T03:03:19.660Z,87.39
2018-06-22T03:04:27.778Z,87.77
2018-06-22T03:05:35.804Z,87.49
2018-06-22T03:06:43.867Z,87.87
2018-06-22T03:07:51.919Z,87.87
2018-06-22T03:08:59.989Z,87.49
2018-06-22T03:10:08.043Z,87.20
2018-06-22T03:11:16.084Z,87.49
2018-06-22T03:13:41.316Z,87.39
2018-06-22T03:14:49.384Z,87.49
2018-06-22T03:15:57.443Z,87.39
2018-06-22T03:17:05.526Z,88.62
2018-06-22T03:18:13.584Z,88.62
2018-06-22T03:19:21.641Z,88.43
2018-06-22T03:20:29.707Z,88.24
2018-06-22T03:21:37.755Z,88.06
2018-06-22T03:22:45.802Z,88.53
2018-06-22T03:23:53.891Z,88.43
2018-06-22T03:25:01.944Z,88.43
2018-06-22T03:26:09.993Z,88.15
2018-06-22T03:27:18.057Z,87.49
2018-06-22T03:28:26.115Z,88.06
2018-06-22T03:29:34.277Z,87.96
2018-06-22T03:30:42.252Z,88.06
2018-06-22T03:31:50.322Z,87.58
2018-06-22T03:32:58.382Z,87.49
2018-06-22T03:34:06.446Z,87.77
2018-06-22T03:35:14.500Z,87.96
2018-06-22T03:36:22.559Z,87.68
2018-06-22T03:37:31.660Z,87.39
2018-06-22T03:38:38.689Z,87.68
2018-06-22T03:39:46.719Z,87.30
2018-06-22T03:40:54.798Z,87.58
2018-06-22T03:42:02.874Z,87.58
2018-06-22T03:43:10.946Z,87.58
2018-06-22T03:44:18.993Z,87.68
2018-06-22T03:45:27.048Z,87.39
2018-06-22T03:46:35.118Z,87.01
2018-06-22T03:47:43.191Z,87.68
2018-06-22T03:48:51.244Z,87.49
2018-06-22T03:49:59.313Z,87.39
2018-06-22T03:51:07.382Z,87.34
2018-06-22T03:52:15.432Z,87.53
2018-06-22T03:53:23.495Z,87.34
2018-06-22T03:54:31.553Z,87.53
2018-06-22T03:55:39.626Z,87.43
2018-06-22T03:56:47.690Z,87.24
2018-06-22T03:57:55.742Z,86.68
2018-06-22T03:59:03.788Z,87.15
2018-06-22T04:00:11.856Z,87.24
2018-06-22T04:01:19.927Z,87.43
2018-06-22T04:02:27.988Z,87.24
2018-06-22T04:03:36.034Z,87.15
2018-06-22T04:04:44.127Z,86.87
2018-06-22T04:05:52.177Z,87.43
2018-06-22T04:07:00.232Z,87.05
2018-06-22T04:08:08.346Z,87.05
2018-06-22T04:09:16.325Z,87.05
2018-06-22T04:10:24.413Z,86.87
2018-06-22T04:11:32.501Z,86.58
2018-06-22T04:12:40.545Z,86.77
2018-06-22T04:13:48.608Z,86.68
2018-06-22T04:14:56.648Z,86.82
2018-06-22T04:16:04.728Z,85.96
2018-06-22T04:17:12.789Z,86.05
2018-06-22T04:18:20.860Z,85.96
2018-06-22T04:19:28.926Z,86.63
2018-06-22T04:20:36.977Z,86.05
2018-06-22T04:21:45.051Z,86.72
2018-06-22T04:22:53.106Z,86.15
2018-06-22T04:24:01.160Z,85.96
2018-06-22T04:25:09.220Z,85.68
2018-06-22T04:26:17.298Z,85.86
2018-06-22T04:27:25.346Z,85.96
2018-06-22T04:28:33.447Z,85.58
2018-06-22T04:29:41.488Z,85.58
2018-06-22T04:30:49.539Z,85.77
2018-06-22T04:31:57.639Z,85.30
2018-06-22T04:33:05.674Z,85.39
2018-06-22T04:34:13.899Z,85.77
2018-06-22T04:35:21.785Z,85.01
2018-06-22T04:36:29.849Z,85.11
2018-06-22T04:37:37.913Z,85.49
2018-06-22T04:38:46.047Z,85.01
2018-06-22T04:39:54.053Z,85.34
2018-06-22T04:41:02.128Z,84.58
2018-06-22T04:42:10.172Z,85.05
2018-06-22T04:43:18.245Z,84.48
2018-06-22T04:44:26.255Z,84.29
2018-06-22T04:45:34.441Z,83.91
2018-06-22T04:46:42.413Z,84.39
2018-06-22T04:47:50.780Z,84.48
2018-06-22T04:48:58.545Z,84.20
2018-06-22T04:50:06.592Z,84.86
2018-06-22T04:51:14.656Z,84.01
2018-06-22T04:52:22.725Z,84.39
2018-06-22T04:53:30.797Z,84.29
2018-06-22T04:54:38.864Z,84.29
2018-06-22T04:55:47.441Z,84.29
2018-06-22T04:56:54.975Z,84.10
2018-06-22T04:58:03.055Z,84.29
2018-06-22T04:59:11.093Z,84.43
2018-06-22T05:00:19.177Z,84.20
2018-06-22T05:01:28.110Z,84.33
2018-06-22T05:02:35.725Z,83.67
2018-06-22T05:03:43.389Z,83.67
2018-06-22T05:07:09.002Z,83.00
2018-06-22T05:08:15.610Z,82.81
2018-06-22T05:10:31.756Z,82.95
2018-06-22T05:11:39.815Z,81.52
2018-06-22T05:12:47.853Z,81.24
2018-06-22T05:13:55.919Z,81.33
2018-06-22T05:15:04.578Z,80.38
2018-06-22T05:16:12.030Z,80.47
2018-06-22T05:17:20.110Z,80.29
2018-06-22T05:18:28.185Z,81.05
2018-06-22T05:19:36.233Z,81.33
2018-06-22T05:20:44.304Z,81.14
2018-06-22T05:21:52.385Z,81.05
2018-06-22T05:23:00.416Z,81.24
2018-06-22T05:24:08.492Z,81.14
2018-06-22T05:25:16.616Z,81.14
2018-06-22T05:26:24.610Z,81.14
2018-06-22T05:27:32.672Z,81.24
2018-06-22T05:28:40.731Z,80.47
2018-06-22T05:29:48.792Z,80.38
2018-06-22T05:30:56.840Z,80.76
2018-06-22T05:32:04.918Z,80.47
2018-06-22T05:33:13.002Z,80.29
2018-06-22T05:34:21.058Z,80.57
2018-06-22T05:35:29.128Z,80.10
2018-06-22T05:36:37.169Z,80.71
2018-06-22T05:37:45.245Z,80.47
2018-06-22T05:38:53.304Z,80.57
2018-06-22T05:40:01.366Z,80.38
2018-06-22T05:41:09.424Z,81.28
2018-06-22T05:42:17.477Z,80.52
2018-06-22T05:43:25.552Z,80.71
2018-06-22T05:44:33.642Z,80.42
2018-06-22T05:45:41.692Z,79.94
2018-06-22T05:46:49.759Z,80.33
2018-06-22T05:47:57.795Z,80.13
2018-06-22T05:49:05.877Z,80.33
2018-06-22T05:50:13.936Z,80.42
2018-06-22T05:51:22.014Z,80.04
2018-06-22T05:52:30.071Z,79.38
2018-06-22T05:53:38.151Z,79.94
2018-06-22T05:54:46.196Z,79.57
2018-06-22T05:55:54.259Z,79.66
2018-06-22T05:57:02.329Z,79.75
2018-06-22T05:58:10.394Z,80.52
2018-06-22T05:59:18.450Z,79.94
2018-06-22T06:00:26.498Z,79.41
2018-06-22T06:01:34.584Z,79.19
2018-06-22T06:02:42.638Z,79.03
2018-06-22T06:03:50.703Z,78.46
2018-06-22T06:04:58.782Z,78.37
2018-06-22T06:06:06.812Z,79.03
2018-06-22T06:07:14.901Z,79.41
2018-06-22T06:08:22.955Z,78.46
2018-06-22T06:09:31.034Z,78.46
2018-06-22T06:10:39.098Z,79.22
2018-06-22T06:11:47.144Z,78.46
2018-06-22T06:12:55.234Z,77.32
2018-06-22T06:14:03.320Z,77.42
2018-06-22T06:15:11.353Z,78.37
2018-06-22T06:16:19.414Z,78.46
2018-06-22T06:17:27.451Z,77.32
2018-06-22T06:18:35.545Z,77.98
2018-06-22T06:19:43.622Z,77.93
2018-06-22T06:20:51.671Z,78.46
2018-06-22T06:21:59.731Z,77.45
2018-06-22T06:23:07.793Z,77.17
2018-06-22T06:24:15.862Z,76.69
2018-06-22T06:25:23.940Z,76.31
2018-06-22T06:26:31.984Z,77.17
2018-06-22T06:27:40.047Z,77.17
2018-06-22T06:28:48.105Z,77.64
2018-06-22T06:29:56.186Z,76.12
2018-06-22T06:31:04.239Z,75.84
2018-06-22T06:32:12.311Z,76.40
2018-06-22T06:33:20.371Z,76.03
2018-06-22T06:34:28.560Z,75.84
2018-06-22T06:35:36.510Z,76.03
2018-06-22T06:36:44.579Z,74.50
2018-06-22T06:37:52.636Z,74.60
2018-06-22T06:39:00.706Z,74.31
2018-06-22T06:40:08.799Z,74.69
2018-06-22T06:41:16.812Z,74.69
2018-06-22T06:42:24.908Z,73.55
2018-06-22T06:43:32.971Z,72.41
2018-06-22T06:44:41.034Z,73.36
2018-06-22T06:45:49.090Z,72.97
2018-06-22T06:46:57.126Z,73.11
2018-06-22T06:48:05.233Z,73.07
2018-06-22T06:49:13.278Z,73.39
2018-06-22T06:50:21.346Z,73.49
2018-06-22T06:51:29.405Z,73.21
2018-06-22T06:52:37.465Z,73.68
2018-06-22T06:53:45.548Z,72.63
2018-06-22T06:54:53.609Z,71.96
2018-06-22T06:56:01.674Z,72.53
2018-06-22T06:57:09.741Z,71.77
2018-06-22T06:58:17.796Z,73.11
2018-06-22T06:59:25.864Z,70.63
2018-06-22T07:00:33.939Z,71.20
2018-06-22T07:01:42.009Z,70.92
2018-06-22T07:02:50.062Z,70.82
2018-06-22T07:03:58.135Z,70.57
2018-06-22T07:05:06.192Z,69.90
2018-06-22T07:06:14.256Z,67.23
2018-06-22T07:07:22.322Z,66.41
2018-06-22T07:08:30.400Z,65.26
2018-06-22T07:09:38.465Z,65.20
2018-06-22T07:10:46.526Z,64.47
2018-06-22T07:11:54.597Z,64.40
2018-06-22T07:13:02.659Z,61.09
2018-06-22T07:14:10.738Z,60.06
2018-06-22T07:15:18.802Z,60.19
2018-06-22T07:16:26.845Z,58.12
2018-06-22T07:17:34.933Z,56.97
2018-06-22T07:18:43.002Z,57.06
2018-06-22T07:19:51.072Z,57.19
2018-06-22T07:20:59.156Z,56.42
2018-06-22T07:22:07.189Z,56.71
2018-06-22T07:23:15.321Z,54.72
2018-06-22T07:24:23.348Z,54.53
2018-06-22T07:25:31.436Z,54.24
2018-06-22T07:26:39.520Z,54.05
2018-06-22T07:27:47.557Z,54.15
2018-06-22T07:28:55.654Z,50.05
2018-06-22T07:30:03.713Z,50.37
2018-06-22T07:31:11.785Z,50.08
2018-06-22T07:32:19.871Z,48.18
2018-06-22T07:33:27.941Z,47.80
2018-06-22T07:34:36.024Z,46.00
2018-06-22T07:35:44.085Z,44.48
2018-06-22T07:36:52.172Z,44.02
2018-06-22T07:38:00.244Z,41.16
2018-06-22T07:39:08.324Z,40.61
2018-06-22T07:40:16.403Z,40.81
2018-06-22T07:41:24.499Z,38.62
2018-06-22T07:42:32.565Z,38.14
2018-06-22T07:43:40.624Z,36.43
2018-06-22T07:44:48.717Z,37.39
2018-06-22T07:45:56.779Z,39.34
2018-06-22T07:47:04.881Z,38.37
2018-06-22T07:48:12.938Z,38.29
2018-06-22T07:49:21.029Z,35.52
2018-06-22T07:50:29.094Z,36.19
2018-06-22T07:51:37.174Z,35.92
2018-06-22T07:52:45.261Z,34.18
2018-06-22T07:53:53.350Z,33.14
2018-06-22T07:55:01.469Z,30.83
2018-06-22T07:56:09.514Z,32.47
2018-06-22T07:57:17.576Z,33.14
2018-06-22T07:58:25.671Z,34.39
2018-06-22T07:59:33.752Z,33.14
2018-06-22T08:00:41.837Z,32.94
2018-06-22T08:01:49.912Z,34.87
2018-06-22T08:02:57.987Z,34.60
2018-06-22T08:04:06.064Z,33.36
2018-06-22T08:05:14.148Z,30.96
2018-06-22T08:06:22.352Z,30.08
2018-06-22T08:07:30.313Z,29.43
2018-06-22T08:08:38.394Z,27.40
2018-06-22T08:09:46.477Z,26.82
2018-06-22T08:10:54.561Z,29.23
2018-06-22T08:12:02.644Z,29.52
2018-06-22T08:13:10.712Z,29.90
2018-06-22T08:14:18.808Z,32.12
2018-06-22T08:15:26.860Z,29.70
2018-06-22T08:16:35.004Z,30.96
2018-06-22T08:17:43.113Z,27.19
2018-06-22T08:18:51.117Z,27.57
2018-06-22T08:19:59.211Z,27.76
2018-06-22T08:21:07.265Z,29.22
2018-06-22T08:22:15.371Z,31.04
2018-06-22T08:23:23.462Z,30.07
2018-06-22T08:24:31.539Z,31.25
2018-06-22T08:25:39.617Z,30.10
2018-06-22T08:26:47.687Z,30.88
2018-06-22T08:27:55.780Z,31.26
2018-06-22T08:29:03.866Z,31.94
2018-06-22T08:30:11.939Z,32.42
2018-06-22T08:31:20.030Z,31.16
2018-06-22T08:32:28.118Z,30.88
2018-06-22T08:33:36.192Z,31.73
2018-06-22T08:34:44.268Z,31.05
2018-06-22T08:35:52.361Z,32.14
2018-06-22T08:37:00.442Z,30.49
2018-06-22T08:38:08.529Z,31.25
2018-06-22T08:39:16.616Z,31.26
2018-06-22T08:40:24.710Z,30.66
2018-06-22T08:41:32.844Z,29.99
2018-06-22T08:42:40.862Z,32.51
2018-06-22T08:43:48.946Z,30.96
2018-06-22T08:44:57.006Z,29.32
2018-06-22T08:46:05.110Z,29.30
2018-06-22T08:47:13.193Z,30.28
2018-06-22T08:48:21.275Z,31.70
2018-06-22T08:49:29.361Z,31.02
2018-06-22T08:50:37.415Z,30.73
2018-06-22T08:51:45.524Z,30.83
2018-06-22T08:52:53.605Z,31.23
2018-06-22T08:54:01.691Z,33.17
2018-06-22T08:55:09.785Z,33.17
2018-06-22T08:56:17.846Z,33.36
2018-06-22T08:57:25.922Z,31.63
2018-06-22T08:58:34.028Z,29.22
2018-06-22T08:59:42.105Z,30.08
2018-06-22T09:00:50.188Z,30.38
2018-06-22T09:01:58.280Z,30.96
2018-06-22T09:03:06.346Z,30.94
2018-06-22T09:04:14.439Z,31.41
2018-06-22T09:05:22.509Z,33.73
2018-06-22T09:06:30.584Z,30.52
2018-06-22T09:07:38.755Z,31.80
2018-06-22T09:08:46.753Z,32.09
2018-06-22T09:09:54.859Z,32.28
2018-06-22T09:11:02.951Z,32.68
2018-06-22T09:12:11.018Z,32.10
2018-06-22T09:13:19.089Z,33.17
2018-06-22T09:14:27.198Z,33.15
2018-06-22T09:15:35.267Z,33.07
2018-06-22T09:16:43.364Z,32.29
2018-06-22T09:17:51.422Z,31.80
2018-06-22T09:18:59.541Z,29.96
2018-06-22T09:20:07.575Z,29.88
2018-06-22T09:21:15.677Z,30.38
2018-06-22T09:22:23.771Z,31.52
2018-06-22T09:23:31.846Z,33.26
2018-06-22T09:24:39.933Z,34.39
2018-06-22T09:25:48.017Z,32.82
2018-06-22T09:26:56.092Z,33.02
2018-06-22T09:28:04.184Z,34.94
2018-06-22T09:29:12.289Z,36.00
2018-06-22T09:30:20.335Z,36.67
2018-06-22T09:31:28.483Z,36.36
2018-06-22T09:32:36.502Z,34.92
2018-06-22T09:33:44.585Z,36.44
2018-06-22T09:34:52.669Z,36.52
2018-06-22T09:36:00.729Z,37.68
2018-06-22T09:37:08.808Z,34.86
2018-06-22T09:38:16.876Z,37.83
2018-06-22T09:39:24.980Z,37.52
2018-06-22T09:40:33.051Z,39.14
2018-06-22T09:41:41.132Z,40.39
2018-06-22T09:42:49.233Z,43.26
2018-06-22T09:43:57.255Z,42.77
2018-06-22T09:45:05.433Z,42.68
2018-06-22T09:46:13.443Z,42.77
2018-06-22T09:47:21.523Z,42.77
2018-06-22T09:48:29.594Z,44.31
2018-06-22T09:49:37.653Z,41.62
2018-06-22T09:50:45.732Z,40.28
2018-06-22T09:51:53.804Z,40.18
2018-06-22T09:53:01.899Z,36.91
2018-06-22T09:54:09.960Z,40.66
2018-06-22T09:55:18.029Z,44.41
2018-06-22T09:56:26.109Z,43.35
2018-06-22T09:57:34.184Z,45.56
2018-06-22T09:58:42.250Z,41.72
2018-06-22T09:59:50.325Z,42.39
2018-06-22T10:00:58.407Z,45.18
2018-06-22T10:02:06.524Z,42.68
2018-06-22T10:03:14.553Z,42.77
2018-06-22T10:04:22.620Z,42.77
2018-06-22T10:05:30.692Z,42.49
2018-06-22T10:06:38.771Z,45.66
2018-06-22T10:07:46.844Z,44.79
2018-06-22T10:08:54.907Z,41.62
2018-06-22T10:10:02.985Z,42.68
2018-06-22T10:11:11.061Z,44.22
2018-06-22T10:12:19.144Z,41.99
2018-06-22T10:13:27.180Z,42.56
2018-06-22T10:14:35.260Z,44.38
2018-06-22T10:15:43.330Z,42.10
2018-06-22T10:16:51.408Z,45.18
2018-06-22T10:17:59.490Z,45.47
2018-06-22T10:19:07.533Z,44.31
2018-06-22T10:20:15.617Z,44.12
2018-06-22T10:21:23.698Z,46.53
2018-06-22T10:22:31.774Z,44.99
2018-06-22T10:23:39.848Z,44.41
2018-06-22T10:24:47.909Z,44.02
2018-06-22T10:25:55.975Z,43.26
2018-06-22T10:27:04.111Z,41.91
2018-06-22T10:28:12.127Z,41.33
2018-06-22T10:29:20.203Z,41.14
2018-06-22T10:30:28.267Z,42.77
2018-06-22T10:31:36.336Z,43.04
2018-06-22T10:32:44.407Z,41.99
2018-06-22T10:33:52.501Z,45.64
2018-06-22T10:35:00.557Z,44.38
2018-06-22T10:36:08.625Z,46.31
2018-06-22T10:37:16.684Z,45.92
2018-06-22T10:38:24.759Z,45.06
2018-06-22T10:39:32.835Z,44.31
2018-06-22T10:40:40.913Z,45.66
2018-06-22T10:41:48.979Z,44.41
2018-06-22T10:42:57.022Z,44.70
2018-06-22T10:44:05.120Z,43.26
2018-06-22T10:45:13.190Z,44.02
2018-06-22T10:46:21.269Z,41.33
2018-06-22T10:47:29.338Z,41.14
2018-06-22T10:48:37.382Z,42.49
2018-06-22T10:49:45.468Z,43.84
2018-06-22T10:50:53.556Z,42.77
2018-06-22T10:52:01.621Z,42.49
2018-06-22T10:53:09.695Z,43.07
2018-06-22T10:54:17.736Z,41.33
2018-06-22T10:55:25.831Z,42.68
2018-06-22T10:56:33.889Z,44.02
2018-06-22T10:57:41.964Z,44.12
2018-06-22T10:58:50.040Z,44.79
2018-06-22T10:59:58.183Z,47.00
2018-06-22T11:01:06.186Z,42.68
2018-06-22T11:02:14.239Z,42.58
2018-06-22T11:03:22.317Z,44.31
2018-06-22T11:04:30.407Z,42.10
2018-06-22T11:05:38.503Z,41.35
2018-06-22T11:06:46.671Z,42.39
2018-06-22T11:07:54.606Z,45.08
2018-06-22T11:09:02.675Z,44.51
2018-06-22T11:10:10.757Z,46.04
2018-06-22T11:11:18.818Z,44.05
2018-06-22T11:12:26.876Z,43.28
2018-06-22T11:13:34.954Z,44.62
2018-06-22T11:14:43.034Z,45.10
2018-06-22T11:15:51.119Z,42.89
2018-06-22T11:16:59.216Z,44.53
2018-06-22T11:18:07.226Z,45.01
2018-06-22T11:19:15.343Z,43.95
2018-06-22T11:20:23.394Z,42.89
2018-06-22T11:21:31.456Z,42.12
2018-06-22T11:22:39.525Z,41.16
2018-06-22T11:23:47.566Z,44.34
2018-06-22T11:24:55.815Z,45.97
2018-06-22T11:26:03.734Z,44.34
2018-06-22T11:27:11.876Z,43.49
2018-06-22T11:28:19.888Z,44.07
2018-06-22T11:29:27.956Z,42.24
2018-06-22T11:30:36.030Z,42.82
2018-06-22T11:31:44.096Z,44.45
2018-06-22T11:32:52.167Z,45.03
2018-06-22T11:34:00.228Z,45.13
2018-06-22T11:35:08.298Z,44.26
2018-06-22T11:36:16.403Z,42.14
2018-06-22T11:37:24.447Z,43.41
2018-06-22T11:38:32.514Z,41.68
2018-06-22T11:39:40.577Z,42.26
2018-06-22T11:40:48.660Z,43.01
2018-06-22T11:41:56.736Z,42.14
2018-06-22T11:43:04.798Z,40.61
2018-06-22T11:44:12.894Z,44.17
2018-06-22T11:45:20.936Z,42.43
2018-06-22T11:46:29.006Z,45.22
2018-06-22T11:47:37.079Z,41.08
2018-06-22T11:48:45.153Z,43.97
2018-06-22T11:49:53.232Z,42.72
2018-06-22T11:51:01.304Z,42.14
2018-06-22T11:52:09.353Z,42.53
2018-06-22T11:53:17.409Z,42.53
2018-06-22T11:54:25.504Z,42.89
2018-06-22T11:55:33.581Z,42.22
2018-06-22T11:56:41.656Z,39.81
2018-06-22T11:57:49.712Z,40.78
2018-06-22T11:58:57.791Z,42.68
2018-06-22T12:00:05.858Z,44.51
2018-06-22T12:01:13.936Z,45.08
2018-06-22T12:02:22.003Z,45.97
2018-06-22T12:03:30.083Z,42.22
2018-06-22T12:04:38.195Z,44.24
2018-06-22T12:05:46.218Z,45.68
2018-06-22T12:06:54.302Z,44.24
2018-06-22T12:08:02.361Z,41.66
2018-06-22T12:09:10.425Z,41.64
2018-06-22T12:10:18.506Z,44.34
2018-06-22T12:11:26.653Z,42.72
2018-06-22T12:12:34.643Z,42.63
2018-06-22T12:13:42.730Z,43.49
2018-06-22T12:14:50.782Z,42.82
2018-06-22T12:15:58.849Z,43.97
2018-06-22T12:17:06.923Z,43.11
2018-06-22T12:18:15.001Z,43.30
2018-06-22T12:19:23.129Z,44.93
2018-06-22T12:20:31.132Z,42.05
2018-06-22T12:21:39.208Z,44.35
2018-06-22T12:22:47.254Z,42.82
2018-06-22T12:23:55.348Z,41.38
2018-06-22T12:25:03.425Z,41.08
2018-06-22T12:26:11.508Z,43.01
2018-06-22T12:27:19.547Z,43.20
2018-06-22T12:28:27.596Z,43.49
2018-06-22T12:29:35.696Z,46.11
2018-06-22T12:30:43.786Z,44.26
2018-06-22T12:31:51.844Z,44.38
2018-06-22T12:32:59.925Z,43.90
2018-06-22T12:34:08.003Z,39.66
2018-06-22T12:35:16.051Z,40.53
2018-06-22T12:36:24.121Z,42.36
2018-06-22T12:37:32.197Z,42.96
2018-06-22T12:38:40.265Z,44.09
2018-06-22T12:39:48.331Z,43.01
2018-06-22T12:40:56.414Z,45.32
2018-06-22T12:42:04.474Z,44.35
2018-06-22T12:43:12.561Z,42.43
2018-06-22T12:44:20.615Z,44.35
2018-06-22T12:45:28.708Z,44.57
2018-06-22T12:46:36.767Z,41.11
2018-06-22T12:47:44.844Z,42.55
2018-06-22T12:48:52.972Z,44.19
2018-06-22T12:50:00.978Z,43.41
2018-06-22T12:51:09.073Z,44.26
2018-06-22T12:52:17.100Z,44.35
2018-06-22T12:53:25.196Z,44.17
2018-06-22T12:54:33.269Z,44.65
2018-06-22T12:55:41.345Z,44.09
2018-06-22T12:56:49.399Z,43.03
2018-06-22T12:57:57.450Z,43.51
2018-06-22T12:59:05.554Z,43.80
2018-06-22T13:00:13.630Z,41.20
2018-06-22T13:01:21.694Z,42.26
2018-06-22T13:02:29.763Z,41.13
2018-06-22T13:03:37.832Z,42.55
2018-06-22T13:04:45.891Z,45.25
2018-06-22T13:05:53.972Z,44.28
2018-06-22T13:07:02.062Z,44.26
2018-06-22T13:08:10.135Z,42.43
2018-06-22T13:09:18.239Z,43.30
2018-06-22T13:10:26.272Z,42.12
2018-06-22T13:11:34.334Z,41.62
2018-06-22T13:12:42.439Z,44.02
2018-06-22T13:13:50.475Z,46.81
2018-06-22T13:14:58.567Z,44.60
2018-06-22T13:16:06.627Z,45.66
2018-06-22T13:17:14.700Z,45.37
2018-06-22T13:18:22.765Z,43.16
2018-06-22T13:19:30.832Z,44.31
2018-06-22T13:20:38.904Z,43.93
2018-06-22T13:21:46.967Z,44.31
2018-06-22T13:22:55.106Z,44.99
2018-06-22T13:24:03.116Z,46.23
2018-06-22T13:25:11.197Z,45.10
2018-06-22T13:26:19.269Z,44.93
2018-06-22T13:27:27.325Z,44.65
2018-06-22T13:28:35.417Z,44.35
2018-06-22T13:29:43.493Z,43.32
2018-06-22T13:30:51.547Z,44.09
2018-06-22T13:31:59.631Z,39.59
2018-06-22T13:33:07.743Z,42.38
2018-06-22T13:34:15.765Z,41.13
2018-06-22T13:35:23.829Z,41.72
2018-06-22T13:36:31.903Z,39.12
2018-06-22T13:37:39.982Z,39.41
2018-06-22T13:38:48.048Z,39.41
2018-06-22T13:39:56.114Z,43.07
2018-06-22T13:41:04.204Z,39.97
2018-06-22T13:42:12.274Z,38.43
2018-06-22T13:43:20.349Z,39.97
2018-06-22T13:44:28.424Z,38.72
2018-06-22T13:45:36.494Z,39.95
2018-06-22T13:46:44.564Z,41.49
2018-06-22T13:47:52.629Z,41.20
2018-06-22T13:49:00.694Z,41.66
2018-06-22T13:50:08.823Z,41.66
2018-06-22T13:51:16.822Z,42.93
2018-06-22T13:52:24.915Z,41.39
2018-06-22T13:53:32.990Z,43.23
2018-06-22T13:54:41.056Z,40.91
2018-06-22T13:55:49.121Z,41.78
2018-06-22T13:56:57.287Z,42.82
2018-06-22T13:58:05.270Z,42.72
2018-06-22T13:59:13.347Z,43.20
2018-06-22T14:00:21.414Z,43.49
2018-06-22T14:01:29.508Z,44.96
2018-06-22T14:02:37.527Z,39.95
2018-06-22T14:03:45.622Z,42.26
2018-06-22T14:04:53.695Z,41.78
2018-06-22T14:06:01.782Z,41.11
2018-06-22T14:07:09.869Z,42.19
2018-06-22T14:08:17.900Z,42.28
2018-06-22T14:09:26.151Z,44.02
2018-06-22T14:10:34.084Z,44.42
2018-06-22T14:11:42.130Z,42.30
2018-06-22T14:12:50.210Z,41.05
2018-06-22T14:13:58.283Z,39.61
2018-06-22T14:15:06.355Z,39.03
2018-06-22T14:16:14.429Z,40.66
2018-06-22T14:17:22.491Z,42.59
2018-06-22T14:18:30.566Z,42.69
2018-06-22T14:19:38.634Z,44.23
2018-06-22T14:20:46.708Z,41.24
2018-06-22T14:21:54.791Z,40.66
2018-06-22T14:23:02.845Z,40.09
2018-06-22T14:24:10.923Z,40.57
2018-06-22T14:25:19.013Z,41.34
2018-06-22T14:26:27.045Z,43.46
2018-06-22T14:27:35.141Z,41.63
2018-06-22T14:28:43.220Z,39.82
2018-06-22T14:29:51.294Z,42.42
2018-06-22T14:30:59.420Z,42.23
2018-06-22T14:32:07.407Z,40.69
2018-06-22T14:33:15.502Z,37.98
2018-06-22T14:34:23.610Z,40.86
2018-06-22T14:35:31.641Z,41.05
2018-06-22T14:36:39.761Z,40.91
2018-06-22T14:37:47.789Z,41.88
2018-06-22T14:38:55.860Z,40.41
2018-06-22T14:40:03.940Z,39.74
2018-06-22T14:41:11.994Z,42.24